createdAt,value
2023-02-22T00:02:14.538Z,67.67
2023-02-22T00:17:16.809Z,67.427
2023-02-22T00:32:19.358Z,66.35
2023-02-22T00:47:21.713Z,65.984
2023-02-22T01:02:23.969Z,65.194
2023-02-22T01:17:26.623Z,64.757
2023-02-22T01:32:28.884Z,65.876
2023-02-22T01:47:31.232Z,62.496
2023-02-22T02:02:33.455Z,62.238
2023-02-22T02:17:35.716Z,62.7
2023-02-22T02:32:37.969Z,63.499
2023-02-22T02:47:40.329Z,61.083
2023-02-22T03:02:42.792Z,62.798
2023-02-22T03:17:45.073Z,63.212
2023-02-22T03:32:47.273Z,60.636
2023-02-22T03:47:49.478Z,59.199
2023-02-22T04:02:51.811Z,59.514
2023-02-22T04:17:54.079Z,60.069
2023-02-22T04:32:56.536Z,60.566
2023-02-22T04:47:58.748Z,61.95
2023-02-22T05:03:01.000Z,59.686
2023-02-22T05:18:03.193Z,59.648
2023-02-22T05:33:05.421Z,59.71
2023-02-22T05:48:07.685Z,59.708
2023-02-22T06:03:09.943Z,61.097
2023-02-22T06:18:12.192Z,61.745
2023-02-22T06:33:14.670Z,61.535
2023-02-22T06:48:16.906Z,59.651
2023-02-22T07:03:19.425Z,60.136
2023-02-22T07:18:21.893Z,59.286
2023-02-22T07:33:24.257Z,56.166
2023-02-22T07:48:26.643Z,59.079
2023-02-22T08:03:28.974Z,57.732
2023-02-22T08:18:31.274Z,56.424
2023-02-22T08:33:33.629Z,57.179
2023-02-22T08:48:35.981Z,57.627
2023-02-22T09:03:38.270Z,56.699
2023-02-22T09:18:44.239Z,56.791
2023-02-22T09:33:47.539Z,57.086
2023-02-22T09:48:49.859Z,56.864
2023-02-22T10:03:52.140Z,56.055
2023-02-22T10:18:54.416Z,56.24
2023-02-22T10:33:56.667Z,54.562
2023-02-22T10:48:58.915Z,55.365
2023-02-22T11:04:01.356Z,54.994
2023-02-22T11:19:03.673Z,56.372
2023-02-22T11:34:05.907Z,54.98
2023-02-22T11:49:08.160Z,53.487
2023-02-22T12:04:10.762Z,55.237
2023-02-22T12:19:13.279Z,54.517
2023-02-22T12:34:15.579Z,55.642
2023-02-22T12:49:17.906Z,53.666
2023-02-22T13:04:21.533Z,53.383
2023-02-22T13:19:23.863Z,53.901
2023-02-22T13:34:26.272Z,54.1
2023-02-22T13:49:28.476Z,53.785
2023-02-22T14:04:30.764Z,54.078
2023-02-22T14:19:33.024Z,50.56
2023-02-22T14:34:35.300Z,51.958
2023-02-22T14:49:37.508Z,49.245
2023-02-22T15:04:39.770Z,50.253
2023-02-22T15:19:42.085Z,53.458
2023-02-22T15:34:44.351Z,51.016
2023-02-22T15:49:46.563Z,47.907
2023-02-22T16:04:59.278Z,50.767
2023-02-22T16:20:02.376Z,49.331
2023-02-22T16:35:04.659Z,50.068
2023-02-22T16:50:06.914Z,48.202
2023-02-22T17:05:09.209Z,50.75
2023-02-22T17:20:11.510Z,50.928
2023-02-22T17:35:13.847Z,50.912
2023-02-22T17:50:16.072Z,49.938
2023-02-22T18:05:18.339Z,49.072
2023-02-22T18:20:20.582Z,49.335
2023-02-22T18:35:22.818Z,50.229
2023-02-22T18:50:25.186Z,49.637
2023-02-22T19:05:27.543Z,48.751
2023-02-22T19:20:29.768Z,49.088
2023-02-22T19:35:32.007Z,47.499
2023-02-22T19:50:34.324Z,46.81
2023-02-22T20:05:36.529Z,46.801
2023-02-22T20:20:39.152Z,48.278
2023-02-22T20:35:41.388Z,45.102
2023-02-22T20:50:43.674Z,47.938
2023-02-22T21:05:45.932Z,47.532
2023-02-22T21:20:48.388Z,47.637
2023-02-22T21:35:50.605Z,48.794
2023-02-22T21:50:52.855Z,48.141
2023-02-22T22:05:55.085Z,48.416
2023-02-22T22:20:58.014Z,48.006
2023-02-22T22:36:00.267Z,47.638
2023-02-22T22:51:02.673Z,48.814
2023-02-22T23:06:05.157Z,47.664
2023-02-22T23:21:07.350Z,48.145
2023-02-22T23:36:09.744Z,43.617
2023-02-22T23:51:12.016Z,45.887
